createdAt,value
2023-05-02T00:01:11.586Z,15.25
2023-05-02T00:06:13.374Z,15.32
2023-05-02T00:11:16.545Z,15.80
2023-05-02T00:16:18.347Z,14.02
2023-05-02T00:21:20.057Z,14.80
2023-05-02T00:26:23.152Z,16.10
2023-05-02T00:31:25.062Z,14.13
2023-05-02T00:36:27.005Z,16.50
2023-05-02T00:41:30.070Z,16.10
2023-05-02T00:46:31.970Z,17.48
2023-05-02T00:51:33.876Z,15.55
2023-05-02T00:56:37.206Z,17.23
2023-05-02T01:01:50.127Z,18.67
2023-05-02T01:07:02.714Z,17.35
2023-05-02T01:12:14.731Z,17.65
2023-05-02T01:17:19.585Z,18.80
2023-05-02T01:22:24.196Z,19.27
2023-05-02T01:27:47.575Z,20.42
2023-05-02T01:32:52.441Z,19.87
2023-05-02T01:37:57.513Z,21.62
2023-05-02T01:43:00.815Z,24.60
2023-05-02T01:48:08.971Z,26.73
2023-05-02T01:53:11.688Z,23.87
2023-05-02T01:58:14.977Z,24.50
2023-05-02T02:03:18.709Z,25.10
2023-05-02T02:08:20.404Z,37.33
2023-05-02T02:13:28.508Z,34.72
2023-05-02T02:18:37.621Z,33.72
2023-05-02T02:23:43.057Z,31.45
2023-05-02T02:28:44.979Z,33.15
2023-05-02T02:33:48.416Z,32.72
2023-05-02T02:38:55.871Z,39.40
2023-05-02T02:44:04.047Z,34.35
2023-05-02T02:49:17.443Z,35.70
2023-05-02T02:54:33.802Z,37.15
2023-05-02T02:59:40.216Z,33.38
2023-05-02T03:04:45.844Z,37.03
2023-05-02T03:09:48.222Z,34.10
2023-05-02T03:14:50.368Z,34.83
2023-05-02T03:19:53.479Z,35.05
2023-05-02T03:24:55.283Z,32.67
2023-05-02T03:29:57.087Z,34.30
2023-05-02T03:35:00.556Z,41.80
2023-05-02T03:40:02.621Z,42.00
2023-05-02T03:45:06.171Z,47.10
2023-05-02T03:50:10.323Z,54.70
2023-05-02T03:55:12.133Z,60.55
2023-05-02T04:00:14.442Z,65.22
2023-05-02T04:05:17.587Z,66.75
2023-05-02T04:10:19.254Z,60.33
2023-05-02T04:20:39.598Z,60.67
2023-05-02T04:25:41.572Z,65.03
2023-05-02T04:30:43.512Z,66.53
2023-05-02T04:35:46.814Z,63.75
2023-05-02T04:40:52.135Z,66.10
2023-05-02T04:45:53.917Z,63.38
2023-05-02T04:51:03.155Z,66.45
2023-05-02T04:56:08.133Z,70.72
2023-05-02T05:01:09.984Z,65.85
2023-05-02T05:06:13.089Z,74.93
2023-05-02T05:11:14.971Z,78.50
2023-05-02T05:16:16.741Z,75.87
2023-05-02T05:21:19.907Z,76.43
2023-05-02T05:26:21.633Z,77.37
2023-05-02T05:31:23.399Z,75.18
2023-05-02T05:36:28.609Z,81.65
2023-05-02T05:51:51.872Z,70.05
2023-05-02T05:56:53.856Z,66.93
2023-05-02T06:01:55.712Z,76.15
2023-05-02T06:06:58.977Z,73.72
2023-05-02T06:12:02.119Z,72.68
2023-05-02T06:17:03.840Z,71.78
2023-05-02T06:22:06.943Z,76.93
2023-05-02T06:27:08.695Z,73.78
2023-05-02T06:32:10.408Z,79.65
2023-05-02T06:37:13.577Z,70.87
2023-05-02T06:42:16.559Z,66.45
2023-05-02T06:47:18.463Z,71.65
2023-05-02T06:52:21.753Z,73.43
2023-05-02T06:57:24.543Z,72.12
2023-05-02T07:02:26.366Z,60.90
2023-05-02T07:07:29.581Z,63.42
2023-05-02T07:12:31.309Z,57.38
2023-05-02T07:17:33.105Z,60.92
2023-05-02T07:22:36.257Z,55.20
2023-05-02T07:27:38.087Z,52.25
2023-05-02T07:32:40.022Z,46.67
2023-05-02T07:37:43.261Z,51.58
2023-05-02T07:42:45.058Z,45.40
2023-05-02T07:47:46.928Z,45.08
2023-05-02T07:52:50.013Z,39.97
2023-05-02T07:57:51.756Z,43.17
2023-05-02T08:02:53.489Z,41.47
2023-05-02T08:07:56.659Z,38.17
2023-05-02T08:12:58.408Z,38.78
2023-05-02T08:18:00.259Z,37.90
2023-05-02T08:23:03.388Z,37.45
2023-05-02T08:28:05.072Z,40.12
2023-05-02T08:33:07.050Z,49.13
2023-05-02T08:38:10.230Z,46.50
2023-05-02T08:43:16.250Z,42.25
2023-05-02T08:48:19.154Z,43.13
2023-05-02T08:53:24.212Z,42.67
2023-05-02T08:58:26.488Z,41.35
2023-05-02T09:03:30.328Z,38.78
2023-05-02T09:08:33.522Z,38.45
2023-05-02T09:13:36.678Z,39.50
2023-05-02T09:18:39.857Z,36.83
2023-05-02T09:23:44.551Z,38.70
2023-05-02T09:28:47.700Z,33.30
2023-05-02T09:33:49.928Z,35.45
2023-05-02T09:39:08.594Z,34.05
2023-05-02T09:44:11.767Z,37.10
2023-05-02T09:49:14.239Z,35.90
2023-05-02T09:54:34.485Z,29.60
2023-05-02T09:59:36.756Z,31.12
2023-05-02T10:04:39.431Z,31.17
2023-05-02T10:09:44.386Z,27.02
2023-05-02T10:14:50.363Z,25.12
2023-05-02T10:19:57.140Z,26.17
2023-05-02T10:25:00.905Z,24.65
2023-05-02T10:30:03.342Z,21.50
2023-05-02T10:35:06.472Z,22.92
2023-05-02T10:40:12.480Z,19.25
2023-05-02T10:45:34.207Z,17.20
2023-05-02T10:50:43.530Z,17.80
2023-05-02T10:56:06.679Z,17.65
2023-05-02T11:01:36.806Z,17.95
2023-05-02T11:07:17.092Z,16.95
2023-05-02T11:12:45.209Z,17.25
2023-05-02T11:17:59.937Z,13.62
2023-05-02T11:23:20.257Z,16.23
2023-05-02T11:28:43.657Z,15.10
2023-05-02T11:33:55.892Z,13.95
2023-05-02T11:38:57.628Z,14.25
2023-05-02T11:44:04.563Z,14.10
2023-05-02T11:49:14.870Z,13.95
2023-05-02T11:54:19.494Z,13.80
2023-05-02T11:59:22.638Z,14.63
2023-05-02T12:04:24.637Z,12.70
2023-05-02T12:09:26.725Z,13.45
2023-05-02T12:14:30.820Z,14.73
2023-05-02T12:19:32.722Z,13.82
2023-05-02T12:24:34.754Z,13.95
2023-05-02T12:29:42.364Z,16.02
2023-05-02T12:34:44.179Z,15.98
2023-05-02T12:39:45.942Z,16.10
2023-05-02T12:44:52.604Z,17.20
2023-05-02T12:50:01.890Z,19.40
2023-05-02T12:55:16.378Z,18.45
2023-05-02T13:00:20.029Z,18.42
2023-05-02T13:05:21.899Z,16.35
2023-05-02T13:10:23.766Z,17.73
2023-05-02T13:15:26.926Z,16.20
2023-05-02T13:20:28.590Z,14.80
2023-05-02T13:25:48.985Z,13.23
2023-05-02T13:30:52.480Z,14.23
2023-05-02T13:35:54.248Z,13.10
2023-05-02T13:40:58.137Z,14.07
2023-05-02T13:46:01.291Z,13.85
2023-05-02T13:51:03.191Z,15.45
2023-05-02T13:56:06.409Z,16.50
2023-05-02T14:01:23.667Z,15.43
2023-05-02T14:06:25.707Z,15.15
2023-05-02T14:11:27.517Z,16.65
2023-05-02T14:16:30.771Z,16.70
2023-05-02T14:21:32.469Z,17.95
2023-05-02T14:26:34.233Z,16.08
2023-05-02T14:31:37.448Z,17.70
2023-05-02T14:36:39.241Z,15.95
2023-05-02T14:41:40.933Z,15.73
2023-05-02T14:46:44.330Z,17.08
2023-05-02T14:51:46.061Z,16.87
2023-05-02T15:02:06.686Z,16.00
2023-05-02T15:07:08.765Z,16.87
2023-05-02T15:12:10.710Z,15.25
2023-05-02T15:17:13.862Z,15.55
2023-05-02T15:22:15.644Z,15.60
2023-05-02T15:27:17.435Z,15.73
2023-05-02T15:32:20.885Z,14.25
2023-05-02T15:37:22.798Z,17.00
2023-05-02T15:42:24.542Z,15.35
2023-05-02T15:47:27.648Z,14.90
2023-05-02T15:52:29.785Z,16.67
2023-05-02T15:57:31.531Z,15.45
2023-05-02T16:02:34.661Z,15.02
2023-05-02T16:07:36.398Z,14.57
2023-05-02T16:12:38.136Z,15.18
2023-05-02T16:17:41.538Z,13.23
2023-05-02T16:22:43.633Z,16.37
2023-05-02T16:27:45.512Z,15.23
2023-05-02T16:32:48.803Z,14.80
2023-05-02T16:37:50.537Z,14.30
2023-05-02T16:42:53.229Z,15.48
2023-05-02T16:47:56.518Z,15.15
2023-05-02T16:52:58.512Z,14.45
2023-05-02T16:58:12.421Z,14.27
2023-05-02T17:03:16.219Z,13.80
2023-05-02T17:08:18.178Z,12.98
2023-05-02T17:13:20.332Z,14.00
2023-05-02T17:18:43.539Z,14.60
2023-05-02T17:23:45.445Z,13.50
2023-05-02T17:28:47.198Z,14.25
2023-05-02T17:33:50.278Z,14.18
2023-05-02T17:38:51.966Z,14.60
2023-05-02T17:43:56.378Z,14.35
2023-05-02T17:48:59.679Z,13.20
2023-05-02T17:54:01.500Z,14.38
2023-05-02T17:59:03.330Z,13.93
2023-05-02T18:04:06.736Z,12.65
2023-05-02T18:15:27.316Z,14.13
2023-05-02T18:20:30.500Z,15.13
2023-05-02T18:25:33.896Z,14.25
2023-05-02T18:30:36.523Z,14.90
2023-05-02T18:35:44.926Z,14.45
2023-05-02T18:40:46.860Z,14.13
2023-05-02T18:45:48.751Z,14.82
2023-05-02T18:50:55.432Z,14.57
2023-05-02T18:55:57.243Z,14.73
2023-05-02T19:00:59.046Z,15.80
2023-05-02T19:06:02.583Z,16.42
2023-05-02T19:11:04.360Z,14.18
2023-05-02T19:16:09.616Z,16.92
2023-05-02T19:21:13.957Z,16.00
2023-05-02T19:26:17.024Z,16.87
2023-05-02T19:31:20.294Z,15.15
2023-05-02T19:36:24.561Z,17.50
2023-05-02T19:41:26.488Z,16.90
2023-05-02T19:46:28.466Z,15.90
2023-05-02T19:51:31.811Z,17.00
2023-05-02T19:56:33.778Z,15.98
2023-05-02T20:01:35.545Z,16.70
2023-05-02T20:06:38.649Z,14.18
2023-05-02T20:11:40.416Z,17.62
2023-05-02T20:16:42.318Z,14.48
2023-05-02T20:21:45.760Z,16.27
2023-05-02T20:26:47.606Z,18.00
2023-05-02T20:31:49.393Z,15.70
2023-05-02T20:36:52.504Z,17.02
2023-05-02T20:41:54.314Z,15.40
2023-05-02T20:46:56.012Z,16.25
2023-05-02T20:52:03.003Z,15.23
2023-05-02T20:57:04.748Z,15.32
2023-05-02T21:02:07.245Z,16.20
2023-05-02T21:07:10.778Z,16.87
2023-05-02T21:12:12.579Z,17.30
2023-05-02T21:17:14.253Z,15.68
2023-05-02T21:22:17.395Z,17.87
2023-05-02T21:27:19.206Z,15.00
2023-05-02T21:32:20.978Z,17.02
2023-05-02T21:37:24.257Z,20.95
2023-05-02T21:42:26.002Z,17.83
2023-05-02T21:47:27.726Z,20.90
2023-05-02T21:57:54.367Z,17.98
2023-05-02T22:02:56.276Z,17.52
2023-05-02T22:07:59.646Z,20.23
2023-05-02T22:13:01.361Z,20.17
2023-05-02T22:18:03.090Z,19.80
2023-05-02T22:23:06.230Z,16.85
2023-05-02T22:28:08.510Z,17.75
2023-05-02T22:33:10.665Z,19.85
2023-05-02T22:38:16.022Z,17.92
2023-05-02T22:43:17.761Z,17.90
2023-05-02T22:48:19.475Z,17.58
2023-05-02T22:53:22.610Z,17.60
2023-05-02T22:58:24.429Z,21.40
2023-05-02T23:03:26.246Z,18.17
2023-05-02T23:08:29.367Z,18.12
2023-05-02T23:13:31.210Z,20.98
2023-05-02T23:18:32.944Z,18.92
2023-05-02T23:23:35.968Z,18.73
2023-05-02T23:28:38.586Z,19.85
2023-05-02T23:33:40.276Z,19.50
2023-05-02T23:38:43.505Z,19.83
2023-05-02T23:43:45.289Z,17.67
2023-05-02T23:48:47.023Z,21.10
2023-05-02T23:53:50.127Z,17.20
2023-05-02T23:58:51.809Z,18.40
